sensor_id;sensor_type;location;lat;lon;timestamp;P1;durP1;ratioP1;P2;durP2;ratioP2
75667;SDS011;64266;48.798;44.756;2024-01-15T00:00:53;2.85;;;0.88;;
75667;SDS011;64266;48.798;44.756;2024-01-15T00:05:57;5.30;;;1.42;;
75667;SDS011;64266;48.798;44.756;2024-01-15T00:11:00;3.78;;;1.48;;
75667;SDS011;64266;48.798;44.756;2024-01-15T00:16:04;4.50;;;1.08;;
75667;SDS011;64266;48.798;44.756;2024-01-15T00:21:07;3.67;;;1.10;;
75667;SDS011;64266;48.798;44.756;2024-01-15T00:26:12;3.67;;;1.05;;
75667;SDS011;64266;48.798;44.756;2024-01-15T00:31:16;4.85;;;1.33;;
75667;SDS011;64266;48.798;44.756;2024-01-15T00:36:20;9.98;;;1.45;;
75667;SDS011;64266;48.798;44.756;2024-01-15T00:41:23;3.30;;;1.30;;
75667;SDS011;64266;48.798;44.756;2024-01-15T00:46:26;4.25;;;1.00;;
75667;SDS011;64266;48.798;44.756;2024-01-15T00:51:29;3.15;;;1.10;;
75667;SDS011;64266;48.798;44.756;2024-01-15T00:56:33;3.95;;;1.05;;
75667;SDS011;64266;48.798;44.756;2024-01-15T01:01:36;5.90;;;1.23;;
75667;SDS011;64266;48.798;44.756;2024-01-15T01:06:40;1.67;;;0.70;;
75667;SDS011;64266;48.798;44.756;2024-01-15T01:11:44;4.85;;;0.70;;
75667;SDS011;64266;48.798;44.756;2024-01-15T01:16:47;3.22;;;1.02;;
75667;SDS011;64266;48.798;44.756;2024-01-15T01:21:50;4.40;;;1.40;;
75667;SDS011;64266;48.798;44.756;2024-01-15T01:26:55;2.40;;;1.00;;
75667;SDS011;64266;48.798;44.756;2024-01-15T01:31:58;3.15;;;1.17;;
75667;SDS011;64266;48.798;44.756;2024-01-15T01:37:01;2.83;;;1.13;;
75667;SDS011;64266;48.798;44.756;2024-01-15T01:42:04;3.40;;;0.93;;
75667;SDS011;64266;48.798;44.756;2024-01-15T01:47:08;4.15;;;1.48;;
75667;SDS011;64266;48.798;44.756;2024-01-15T01:52:12;5.45;;;1.80;;
75667;SDS011;64266;48.798;44.756;2024-01-15T01:57:16;4.50;;;1.50;;
75667;SDS011;64266;48.798;44.756;2024-01-15T02:02:21;4.30;;;1.52;;
75667;SDS011;64266;48.798;44.756;2024-01-15T02:07:25;2.63;;;1.13;;
75667;SDS011;64266;48.798;44.756;2024-01-15T02:12:28;4.82;;;1.20;;
75667;SDS011;64266;48.798;44.756;2024-01-15T02:17:31;6.47;;;1.95;;
75667;SDS011;64266;48.798;44.756;2024-01-15T02:22:34;4.88;;;1.23;;
75667;SDS011;64266;48.798;44.756;2024-01-15T02:27:37;7.53;;;1.70;;
75667;SDS011;64266;48.798;44.756;2024-01-15T02:32:41;5.32;;;1.60;;
75667;SDS011;64266;48.798;44.756;2024-01-15T02:37:44;3.53;;;1.30;;
75667;SDS011;64266;48.798;44.756;2024-01-15T02:42:47;4.47;;;1.58;;
75667;SDS011;64266;48.798;44.756;2024-01-15T02:47:50;7.00;;;1.42;;
75667;SDS011;64266;48.798;44.756;2024-01-15T02:52:52;2.85;;;1.10;;
75667;SDS011;64266;48.798;44.756;2024-01-15T02:57:55;4.57;;;1.65;;
75667;SDS011;64266;48.798;44.756;2024-01-15T03:02:58;4.28;;;1.20;;
75667;SDS011;64266;48.798;44.756;2024-01-15T03:08:02;3.33;;;1.20;;
75667;SDS011;64266;48.798;44.756;2024-01-15T03:13:05;5.03;;;1.58;;
75667;SDS011;64266;48.798;44.756;2024-01-15T03:18:08;5.32;;;1.10;;
75667;SDS011;64266;48.798;44.756;2024-01-15T03:23:12;3.03;;;0.90;;
75667;SDS011;64266;48.798;44.756;2024-01-15T03:28:15;6.70;;;1.17;;
75667;SDS011;64266;48.798;44.756;2024-01-15T03:33:18;4.03;;;1.38;;
75667;SDS011;64266;48.798;44.756;2024-01-15T03:38:22;7.43;;;2.88;;
75667;SDS011;64266;48.798;44.756;2024-01-15T03:43:26;5.97;;;1.60;;
75667;SDS011;64266;48.798;44.756;2024-01-15T03:48:30;2.58;;;1.25;;
75667;SDS011;64266;48.798;44.756;2024-01-15T03:53:33;6.32;;;1.60;;
75667;SDS011;64266;48.798;44.756;2024-01-15T03:58:37;6.70;;;1.75;;
75667;SDS011;64266;48.798;44.756;2024-01-15T04:03:40;4.38;;;0.93;;
75667;SDS011;64266;48.798;44.756;2024-01-15T04:08:43;4.65;;;1.52;;
75667;SDS011;64266;48.798;44.756;2024-01-15T04:13:48;4.70;;;1.55;;
75667;SDS011;64266;48.798;44.756;2024-01-15T04:18:51;18.55;;;5.55;;
75667;SDS011;64266;48.798;44.756;2024-01-15T04:23:54;6.90;;;2.38;;
75667;SDS011;64266;48.798;44.756;2024-01-15T04:28:56;8.82;;;2.97;;
75667;SDS011;64266;48.798;44.756;2024-01-15T04:34:01;4.13;;;1.27;;
75667;SDS011;64266;48.798;44.756;2024-01-15T04:39:04;9.95;;;2.15;;
75667;SDS011;64266;48.798;44.756;2024-01-15T04:44:07;7.80;;;2.05;;
75667;SDS011;64266;48.798;44.756;2024-01-15T04:49:11;9.52;;;1.60;;
75667;SDS011;64266;48.798;44.756;2024-01-15T04:54:14;5.60;;;1.83;;
75667;SDS011;64266;48.798;44.756;2024-01-15T04:59:20;6.43;;;2.10;;
75667;SDS011;64266;48.798;44.756;2024-01-15T05:04:23;6.15;;;2.60;;
75667;SDS011;64266;48.798;44.756;2024-01-15T05:09:29;8.02;;;2.35;;
75667;SDS011;64266;48.798;44.756;2024-01-15T05:14:34;10.63;;;2.40;;
75667;SDS011;64266;48.798;44.756;2024-01-15T05:19:37;5.45;;;1.27;;
75667;SDS011;64266;48.798;44.756;2024-01-15T05:24:40;8.07;;;2.85;;
75667;SDS011;64266;48.798;44.756;2024-01-15T05:29:43;13.35;;;5.93;;
75667;SDS011;64266;48.798;44.756;2024-01-15T05:34:46;5.03;;;1.30;;
75667;SDS011;64266;48.798;44.756;2024-01-15T05:39:50;5.55;;;1.70;;
75667;SDS011;64266;48.798;44.756;2024-01-15T05:44:53;3.95;;;1.55;;
75667;SDS011;64266;48.798;44.756;2024-01-15T05:49:57;20.95;;;8.63;;
75667;SDS011;64266;48.798;44.756;2024-01-15T05:55:01;5.15;;;1.60;;
75667;SDS011;64266;48.798;44.756;2024-01-15T06:00:05;5.78;;;1.67;;
75667;SDS011;64266;48.798;44.756;2024-01-15T06:05:10;5.88;;;1.88;;
75667;SDS011;64266;48.798;44.756;2024-01-15T06:10:14;5.20;;;1.33;;
75667;SDS011;64266;48.798;44.756;2024-01-15T06:15:19;2.35;;;0.77;;
75667;SDS011;64266;48.798;44.756;2024-01-15T06:20:22;5.72;;;1.17;;
75667;SDS011;64266;48.798;44.756;2024-01-15T06:25:26;5.78;;;1.52;;
75667;SDS011;64266;48.798;44.756;2024-01-15T06:30:28;5.55;;;1.85;;
75667;SDS011;64266;48.798;44.756;2024-01-15T06:35:32;7.53;;;1.42;;
75667;SDS011;64266;48.798;44.756;2024-01-15T06:40:37;6.47;;;2.28;;
75667;SDS011;64266;48.798;44.756;2024-01-15T06:45:42;9.27;;;1.60;;
75667;SDS011;64266;48.798;44.756;2024-01-15T06:50:46;7.53;;;3.03;;
75667;SDS011;64266;48.798;44.756;2024-01-15T06:55:49;5.25;;;2.15;;
75667;SDS011;64266;48.798;44.756;2024-01-15T07:00:53;4.38;;;1.25;;
75667;SDS011;64266;48.798;44.756;2024-01-15T07:05:57;6.40;;;2.45;;
75667;SDS011;64266;48.798;44.756;2024-01-15T07:11:03;7.22;;;1.30;;
75667;SDS011;64266;48.798;44.756;2024-01-15T07:16:06;6.55;;;1.50;;
75667;SDS011;64266;48.798;44.756;2024-01-15T07:21:10;4.55;;;1.15;;
75667;SDS011;64266;48.798;44.756;2024-01-15T07:26:13;3.50;;;1.30;;
75667;SDS011;64266;48.798;44.756;2024-01-15T07:31:17;4.70;;;1.40;;
75667;SDS011;64266;48.798;44.756;2024-01-15T07:36:20;8.68;;;1.83;;
75667;SDS011;64266;48.798;44.756;2024-01-15T07:41:32;7.18;;;2.10;;
75667;SDS011;64266;48.798;44.756;2024-01-15T07:46:44;7.82;;;2.80;;
75667;SDS011;64266;48.798;44.756;2024-01-15T07:51:48;7.80;;;2.05;;
75667;SDS011;64266;48.798;44.756;2024-01-15T07:56:59;5.07;;;1.20;;
75667;SDS011;64266;48.798;44.756;2024-01-15T08:02:03;4.72;;;1.23;;
75667;SDS011;64266;48.798;44.756;2024-01-15T08:07:07;4.18;;;1.55;;
75667;SDS011;64266;48.798;44.756;2024-01-15T08:12:11;10.60;;;3.90;;
75667;SDS011;64266;48.798;44.756;2024-01-15T08:17:15;4.65;;;1.38;;
75667;SDS011;64266;48.798;44.756;2024-01-15T08:22:19;2.65;;;1.02;;
75667;SDS011;64266;48.798;44.756;2024-01-15T08:27:23;1.42;;;0.88;;
75667;SDS011;64266;48.798;44.756;2024-01-15T08:32:26;5.18;;;1.00;;
75667;SDS011;64266;48.798;44.756;2024-01-15T08:37:29;5.25;;;1.33;;
75667;SDS011;64266;48.798;44.756;2024-01-15T08:42:32;2.95;;;1.00;;
75667;SDS011;64266;48.798;44.756;2024-01-15T08:47:36;7.05;;;1.85;;
75667;SDS011;64266;48.798;44.756;2024-01-15T08:52:39;3.45;;;0.93;;
75667;SDS011;64266;48.798;44.756;2024-01-15T08:57:41;2.95;;;0.88;;
75667;SDS011;64266;48.798;44.756;2024-01-15T09:02:45;12.32;;;4.55;;
75667;SDS011;64266;48.798;44.756;2024-01-15T09:07:48;3.10;;;1.17;;
75667;SDS011;64266;48.798;44.756;2024-01-15T09:12:55;7.70;;;3.13;;
75667;SDS011;64266;48.798;44.756;2024-01-15T09:17:58;4.18;;;0.90;;
75667;SDS011;64266;48.798;44.756;2024-01-15T09:23:02;4.32;;;1.40;;
75667;SDS011;64266;48.798;44.756;2024-01-15T09:28:05;4.18;;;1.75;;
75667;SDS011;64266;48.798;44.756;2024-01-15T09:33:09;3.25;;;1.00;;
75667;SDS011;64266;48.798;44.756;2024-01-15T09:38:13;4.60;;;0.85;;
75667;SDS011;64266;48.798;44.756;2024-01-15T09:43:16;2.65;;;0.77;;
75667;SDS011;64266;48.798;44.756;2024-01-15T09:48:22;6.95;;;1.10;;
75667;SDS011;64266;48.798;44.756;2024-01-15T09:53:25;7.05;;;1.40;;
75667;SDS011;64266;48.798;44.756;2024-01-15T10:03:57;4.07;;;1.33;;
75667;SDS011;64266;48.798;44.756;2024-01-15T10:09:04;6.03;;;1.60;;
75667;SDS011;64266;48.798;44.756;2024-01-15T10:14:08;14.68;;;2.38;;
75667;SDS011;64266;48.798;44.756;2024-01-15T10:19:14;5.15;;;1.27;;
75667;SDS011;64266;48.798;44.756;2024-01-15T10:24:17;5.03;;;1.98;;
75667;SDS011;64266;48.798;44.756;2024-01-15T10:29:20;6.10;;;1.52;;
75667;SDS011;64266;48.798;44.756;2024-01-15T10:34:24;3.92;;;1.20;;
75667;SDS011;64266;48.798;44.756;2024-01-15T10:39:29;3.78;;;0.98;;
75667;SDS011;64266;48.798;44.756;2024-01-15T10:44:33;10.75;;;3.55;;
75667;SDS011;64266;48.798;44.756;2024-01-15T10:49:37;1.98;;;0.85;;
75667;SDS011;64266;48.798;44.756;2024-01-15T10:54:40;4.97;;;1.40;;
75667;SDS011;64266;48.798;44.756;2024-01-15T10:59:46;8.52;;;2.15;;
75667;SDS011;64266;48.798;44.756;2024-01-15T11:04:49;3.88;;;1.20;;
75667;SDS011;64266;48.798;44.756;2024-01-15T11:09:53;8.30;;;1.50;;
75667;SDS011;64266;48.798;44.756;2024-01-15T11:15:03;5.72;;;2.33;;
75667;SDS011;64266;48.798;44.756;2024-01-15T11:20:08;4.38;;;1.10;;
75667;SDS011;64266;48.798;44.756;2024-01-15T11:25:14;9.50;;;3.20;;
75667;SDS011;64266;48.798;44.756;2024-01-15T11:30:24;5.53;;;1.80;;
75667;SDS011;64266;48.798;44.756;2024-01-15T11:35:47;5.43;;;1.15;;
75667;SDS011;64266;48.798;44.756;2024-01-15T11:40:51;3.40;;;1.67;;
75667;SDS011;64266;48.798;44.756;2024-01-15T11:45:54;3.65;;;1.27;;
75667;SDS011;64266;48.798;44.756;2024-01-15T11:50:58;4.32;;;1.20;;
75667;SDS011;64266;48.798;44.756;2024-01-15T11:56:05;6.50;;;1.60;;
75667;SDS011;64266;48.798;44.756;2024-01-15T12:01:19;5.63;;;1.45;;
75667;SDS011;64266;48.798;44.756;2024-01-15T12:06:25;7.50;;;2.03;;
75667;SDS011;64266;48.798;44.756;2024-01-15T12:11:28;6.28;;;1.85;;
75667;SDS011;64266;48.798;44.756;2024-01-15T12:16:33;4.82;;;1.17;;
75667;SDS011;64266;48.798;44.756;2024-01-15T12:21:38;4.30;;;1.40;;
75667;SDS011;64266;48.798;44.756;2024-01-15T12:26:42;4.63;;;1.48;;
75667;SDS011;64266;48.798;44.756;2024-01-15T12:31:50;7.15;;;2.63;;
75667;SDS011;64266;48.798;44.756;2024-01-15T12:36:57;5.85;;;2.45;;
75667;SDS011;64266;48.798;44.756;2024-01-15T12:42:01;10.45;;;3.90;;
75667;SDS011;64266;48.798;44.756;2024-01-15T12:47:04;7.45;;;3.05;;
75667;SDS011;64266;48.798;44.756;2024-01-15T12:52:10;9.93;;;3.90;;
75667;SDS011;64266;48.798;44.756;2024-01-15T12:57:14;13.18;;;4.78;;
75667;SDS011;64266;48.798;44.756;2024-01-15T13:02:17;9.40;;;4.40;;
75667;SDS011;64266;48.798;44.756;2024-01-15T13:07:21;10.82;;;4.57;;
75667;SDS011;64266;48.798;44.756;2024-01-15T13:12:24;12.88;;;5.00;;
75667;SDS011;64266;48.798;44.756;2024-01-15T13:17:27;7.47;;;3.92;;
75667;SDS011;64266;48.798;44.756;2024-01-15T13:22:32;7.25;;;3.65;;
75667;SDS011;64266;48.798;44.756;2024-01-15T13:27:35;7.10;;;3.30;;
75667;SDS011;64266;48.798;44.756;2024-01-15T13:32:41;9.27;;;3.03;;
75667;SDS011;64266;48.798;44.756;2024-01-15T13:37:44;4.57;;;2.25;;
75667;SDS011;64266;48.798;44.756;2024-01-15T13:42:47;6.95;;;2.90;;
75667;SDS011;64266;48.798;44.756;2024-01-15T13:47:51;7.10;;;2.80;;
75667;SDS011;64266;48.798;44.756;2024-01-15T13:52:55;7.53;;;3.35;;
75667;SDS011;64266;48.798;44.756;2024-01-15T13:58:02;8.35;;;2.53;;
75667;SDS011;64266;48.798;44.756;2024-01-15T14:03:10;6.72;;;3.00;;
75667;SDS011;64266;48.798;44.756;2024-01-15T14:08:15;8.38;;;3.72;;
75667;SDS011;64266;48.798;44.756;2024-01-15T14:13:21;8.85;;;3.60;;
75667;SDS011;64266;48.798;44.756;2024-01-15T14:18:25;8.43;;;3.22;;
75667;SDS011;64266;48.798;44.756;2024-01-15T14:23:29;6.50;;;2.90;;
75667;SDS011;64266;48.798;44.756;2024-01-15T14:28:32;5.43;;;2.88;;
75667;SDS011;64266;48.798;44.756;2024-01-15T14:33:35;7.35;;;3.30;;
75667;SDS011;64266;48.798;44.756;2024-01-15T14:38:41;6.40;;;3.15;;
75667;SDS011;64266;48.798;44.756;2024-01-15T14:43:45;6.85;;;3.50;;
75667;SDS011;64266;48.798;44.756;2024-01-15T14:48:50;6.40;;;3.33;;
75667;SDS011;64266;48.798;44.756;2024-01-15T14:53:53;8.65;;;4.25;;
75667;SDS011;64266;48.798;44.756;2024-01-15T14:58:57;11.65;;;4.47;;
75667;SDS011;64266;48.798;44.756;2024-01-15T15:04:00;7.07;;;3.95;;
75667;SDS011;64266;48.798;44.756;2024-01-15T15:09:03;7.25;;;4.07;;
75667;SDS011;64266;48.798;44.756;2024-01-15T15:14:12;6.50;;;3.50;;
75667;SDS011;64266;48.798;44.756;2024-01-15T15:19:15;6.80;;;3.72;;
75667;SDS011;64266;48.798;44.756;2024-01-15T15:24:21;9.52;;;3.97;;
75667;SDS011;64266;48.798;44.756;2024-01-15T15:29:24;7.32;;;3.97;;
75667;SDS011;64266;48.798;44.756;2024-01-15T15:34:27;7.70;;;4.07;;
75667;SDS011;64266;48.798;44.756;2024-01-15T15:39:30;6.03;;;2.70;;
75667;SDS011;64266;48.798;44.756;2024-01-15T15:44:33;7.93;;;3.67;;
75667;SDS011;64266;48.798;44.756;2024-01-15T15:49:36;6.97;;;3.25;;
75667;SDS011;64266;48.798;44.756;2024-01-15T15:54:40;6.75;;;3.55;;
75667;SDS011;64266;48.798;44.756;2024-01-15T15:59:43;8.38;;;3.92;;
75667;SDS011;64266;48.798;44.756;2024-01-15T16:04:47;6.97;;;3.60;;
75667;SDS011;64266;48.798;44.756;2024-01-15T16:09:51;6.30;;;3.25;;
75667;SDS011;64266;48.798;44.756;2024-01-15T16:14:54;7.47;;;3.63;;
75667;SDS011;64266;48.798;44.756;2024-01-15T16:25:47;9.40;;;4.15;;
75667;SDS011;64266;48.798;44.756;2024-01-15T16:30:50;9.07;;;4.40;;
75667;SDS011;64266;48.798;44.756;2024-01-15T16:35:57;8.98;;;4.45;;
75667;SDS011;64266;48.798;44.756;2024-01-15T16:41:02;11.07;;;4.85;;
75667;SDS011;64266;48.798;44.756;2024-01-15T16:46:07;8.40;;;4.10;;
75667;SDS011;64266;48.798;44.756;2024-01-15T16:51:11;8.88;;;4.35;;
75667;SDS011;64266;48.798;44.756;2024-01-15T16:56:14;11.50;;;4.38;;
75667;SDS011;64266;48.798;44.756;2024-01-15T17:01:17;10.48;;;4.55;;
75667;SDS011;64266;48.798;44.756;2024-01-15T17:06:20;9.50;;;4.32;;
75667;SDS011;64266;48.798;44.756;2024-01-15T17:11:24;9.13;;;4.45;;
75667;SDS011;64266;48.798;44.756;2024-01-15T17:16:27;8.65;;;4.50;;
75667;SDS011;64266;48.798;44.756;2024-01-15T17:21:30;8.88;;;4.78;;
75667;SDS011;64266;48.798;44.756;2024-01-15T17:26:34;11.80;;;4.85;;
75667;SDS011;64266;48.798;44.756;2024-01-15T17:31:37;11.57;;;4.35;;
75667;SDS011;64266;48.798;44.756;2024-01-15T17:36:40;10.50;;;4.93;;
75667;SDS011;64266;48.798;44.756;2024-01-15T17:41:43;8.48;;;4.22;;
75667;SDS011;64266;48.798;44.756;2024-01-15T17:46:46;10.93;;;5.18;;
75667;SDS011;64266;48.798;44.756;2024-01-15T17:51:50;9.73;;;4.82;;
75667;SDS011;64266;48.798;44.756;2024-01-15T17:56:57;9.73;;;4.80;;
75667;SDS011;64266;48.798;44.756;2024-01-15T18:02:00;9.30;;;4.95;;
75667;SDS011;64266;48.798;44.756;2024-01-15T18:07:04;9.40;;;4.75;;
75667;SDS011;64266;48.798;44.756;2024-01-15T18:12:08;10.23;;;4.82;;
75667;SDS011;64266;48.798;44.756;2024-01-15T18:17:12;10.82;;;5.80;;
75667;SDS011;64266;48.798;44.756;2024-01-15T18:22:15;10.88;;;5.70;;
75667;SDS011;64266;48.798;44.756;2024-01-15T18:27:19;11.98;;;5.90;;
75667;SDS011;64266;48.798;44.756;2024-01-15T18:32:22;10.13;;;5.15;;
75667;SDS011;64266;48.798;44.756;2024-01-15T18:37:26;11.10;;;5.90;;
75667;SDS011;64266;48.798;44.756;2024-01-15T18:42:32;12.43;;;6.75;;
75667;SDS011;64266;48.798;44.756;2024-01-15T18:47:36;11.00;;;6.15;;
75667;SDS011;64266;48.798;44.756;2024-01-15T18:52:40;10.52;;;5.28;;
75667;SDS011;64266;48.798;44.756;2024-01-15T18:57:43;11.32;;;6.05;;
75667;SDS011;64266;48.798;44.756;2024-01-15T19:02:47;10.75;;;5.38;;
75667;SDS011;64266;48.798;44.756;2024-01-15T19:07:51;11.65;;;5.68;;
75667;SDS011;64266;48.798;44.756;2024-01-15T19:12:57;13.05;;;5.90;;
75667;SDS011;64266;48.798;44.756;2024-01-15T19:18:01;11.73;;;5.97;;
75667;SDS011;64266;48.798;44.756;2024-01-15T19:23:04;10.82;;;5.25;;
75667;SDS011;64266;48.798;44.756;2024-01-15T19:28:07;10.93;;;4.85;;
75667;SDS011;64266;48.798;44.756;2024-01-15T19:33:11;9.52;;;4.90;;
75667;SDS011;64266;48.798;44.756;2024-01-15T19:38:15;8.32;;;3.92;;
75667;SDS011;64266;48.798;44.756;2024-01-15T19:43:32;9.32;;;4.65;;
75667;SDS011;64266;48.798;44.756;2024-01-15T19:48:47;9.57;;;4.22;;
75667;SDS011;64266;48.798;44.756;2024-01-15T19:58:56;7.40;;;3.88;;
75667;SDS011;64266;48.798;44.756;2024-01-15T20:04:00;7.40;;;4.38;;
75667;SDS011;64266;48.798;44.756;2024-01-15T20:09:11;11.30;;;4.32;;
75667;SDS011;64266;48.798;44.756;2024-01-15T20:14:22;7.28;;;4.13;;
75667;SDS011;64266;48.798;44.756;2024-01-15T20:19:30;8.27;;;4.75;;
75667;SDS011;64266;48.798;44.756;2024-01-15T20:24:35;11.35;;;4.60;;
75667;SDS011;64266;48.798;44.756;2024-01-15T20:29:38;10.50;;;4.45;;
75667;SDS011;64266;48.798;44.756;2024-01-15T20:34:41;9.40;;;4.78;;
75667;SDS011;64266;48.798;44.756;2024-01-15T20:39:44;7.72;;;4.03;;
75667;SDS011;64266;48.798;44.756;2024-01-15T20:44:48;8.73;;;4.70;;
75667;SDS011;64266;48.798;44.756;2024-01-15T20:49:52;7.95;;;4.47;;
75667;SDS011;64266;48.798;44.756;2024-01-15T20:54:56;9.48;;;4.65;;
75667;SDS011;64266;48.798;44.756;2024-01-15T21:00:03;7.55;;;3.42;;
75667;SDS011;64266;48.798;44.756;2024-01-15T21:05:09;8.57;;;4.32;;
75667;SDS011;64266;48.798;44.756;2024-01-15T21:10:16;6.68;;;3.40;;
75667;SDS011;64266;48.798;44.756;2024-01-15T21:15:21;7.97;;;3.97;;
75667;SDS011;64266;48.798;44.756;2024-01-15T21:20:25;6.85;;;4.03;;
75667;SDS011;64266;48.798;44.756;2024-01-15T21:25:29;6.97;;;3.72;;
75667;SDS011;64266;48.798;44.756;2024-01-15T21:30:33;8.73;;;3.97;;
75667;SDS011;64266;48.798;44.756;2024-01-15T21:35:41;7.60;;;3.60;;
75667;SDS011;64266;48.798;44.756;2024-01-15T21:40:48;8.35;;;4.45;;
75667;SDS011;64266;48.798;44.756;2024-01-15T21:45:54;7.80;;;4.25;;
75667;SDS011;64266;48.798;44.756;2024-01-15T21:51:09;10.50;;;4.85;;
75667;SDS011;64266;48.798;44.756;2024-01-15T21:56:35;7.60;;;3.85;;
75667;SDS011;64266;48.798;44.756;2024-01-15T22:01:42;9.88;;;4.72;;
75667;SDS011;64266;48.798;44.756;2024-01-15T22:06:49;8.43;;;4.70;;
75667;SDS011;64266;48.798;44.756;2024-01-15T22:12:03;9.15;;;4.07;;
75667;SDS011;64266;48.798;44.756;2024-01-15T22:17:07;8.35;;;4.47;;
75667;SDS011;64266;48.798;44.756;2024-01-15T22:22:11;7.93;;;4.28;;
75667;SDS011;64266;48.798;44.756;2024-01-15T22:27:14;8.88;;;5.13;;
75667;SDS011;64266;48.798;44.756;2024-01-15T22:32:17;9.65;;;4.85;;
75667;SDS011;64266;48.798;44.756;2024-01-15T22:37:20;8.25;;;4.40;;
75667;SDS011;64266;48.798;44.756;2024-01-15T22:42:23;12.70;;;5.00;;
75667;SDS011;64266;48.798;44.756;2024-01-15T22:47:26;9.32;;;4.70;;
75667;SDS011;64266;48.798;44.756;2024-01-15T22:52:30;10.43;;;5.40;;
75667;SDS011;64266;48.798;44.756;2024-01-15T22:57:33;8.90;;;4.05;;
75667;SDS011;64266;48.798;44.756;2024-01-15T23:02:37;8.82;;;5.05;;
75667;SDS011;64266;48.798;44.756;2024-01-15T23:07:40;8.07;;;4.10;;
75667;SDS011;64266;48.798;44.756;2024-01-15T23:12:43;6.93;;;3.35;;
75667;SDS011;64266;48.798;44.756;2024-01-15T23:17:47;6.38;;;3.20;;
75667;SDS011;64266;48.798;44.756;2024-01-15T23:22:50;7.20;;;3.92;;
75667;SDS011;64266;48.798;44.756;2024-01-15T23:27:54;9.25;;;3.88;;
75667;SDS011;64266;48.798;44.756;2024-01-15T23:32:57;9.57;;;4.95;;
75667;SDS011;64266;48.798;44.756;2024-01-15T23:38:00;8.93;;;3.63;;
75667;SDS011;64266;48.798;44.756;2024-01-15T23:43:03;9.82;;;4.47;;
75667;SDS011;64266;48.798;44.756;2024-01-15T23:48:07;9.10;;;3.92;;
75667;SDS011;64266;48.798;44.756;2024-01-15T23:53:31;7.70;;;3.67;;
75667;SDS011;64266;48.798;44.756;2024-01-15T23:58:34;6.57;;;3.60;;
